Aviation Digital Data Service (ADDS)

Output produced by METARs form (1638 UTC 25 August 2016)
found at http://aviationweather.gov/adds/metars/
 
KROC 251426Z 2514/2612 22008KT P6SM VCSH BKN050 
     FM251500 24011KT P6SM BKN025 BKN040 
     FM251700 26011G18KT P6SM SCT040 
     FM252200 26012KT P6SM VCSH BKN050 
     FM260100 24008KT P6SM VCSH OVC050 
     FM260800 27006KT 5SM BR SCT025